Time;durP1;ratioP1;P1;durP2;ratioP2;P2;SDS_P1;SDS_P2;PMS_P1;PMS_P2;Temp;Humidity;BMP_temperature;BMP_pressure;BME280_temperature;BME280_humidity;BME280_pressure;Samples;Min_cycle;Max_cycle;Signal;HPM_P1;HPM_P2
2022/01/20 00:03:02;;;;;;;6.75;1.75;;;11.20;61.20;;;;;;20631377;28;20034;-85
2022/01/20 00:25:47;;;;;;;9.05;1.85;;;11.20;61.10;;;;;;20649882;28;20507;-85
2022/01/20 00:44:11;;;;;;;7.53;2.60;;;11.20;60.90;;;;;;20631439;28;20389;-85
2022/01/20 00:54:12;;;;;;;10.95;1.95;;;11.20;60.70;;;;;;20611311;28;20042;-87
2022/01/20 01:04:14;;;;;;;8.17;1.47;;;11.10;60.60;;;;;;20609315;28;20085;-84
2022/01/20 01:14:16;;;;;;;6.70;1.58;;;11.10;60.40;;;;;;20656726;28;20727;-84
2022/01/20 01:24:17;;;;;;;7.57;1.67;;;11.10;60.20;;;;;;20639447;28;20094;-84
2022/01/20 01:34:21;;;;;;;8.10;1.70;;;11.10;60.10;;;;;;20640097;28;20039;-84
2022/01/20 01:44:27;;;;;;;6.70;1.55;;;11.10;60.00;;;;;;20639317;28;20050;-85
2022/01/20 01:54:32;;;;;;;8.32;1.65;;;11.10;59.90;;;;;;20638881;28;20030;-85
2022/01/20 02:04:34;;;;;;;6.82;2.08;;;11.10;59.80;;;;;;20638580;28;20030;-85
2022/01/20 02:25:22;;;;;;;7.03;1.83;;;11.00;59.60;;;;;;20641440;28;20073;-84
2022/01/20 02:35:25;;;;;;;7.75;3.08;;;11.00;59.50;;;;;;20637773;28;20065;-84
2022/01/20 02:45:26;;;;;;;4.50;1.30;;;11.00;59.50;;;;;;20668419;28;20050;-86
2022/01/20 02:55:27;;;;;;;6.50;1.33;;;11.00;59.40;;;;;;20652102;28;20396;-86
2022/01/20 03:05:33;;;;;;;5.40;1.48;;;11.00;59.40;;;;;;20651582;28;20412;-85
2022/01/20 03:15:41;;;;;;;8.80;1.80;;;11.00;59.40;;;;;;20716578;28;20038;-85
2022/01/20 03:25:41;;;;;;;9.20;2.00;;;10.90;59.30;;;;;;20730511;28;20045;-85
2022/01/20 03:35:42;;;;;;;5.57;1.23;;;10.90;59.30;;;;;;20712426;28;20499;-84
2022/01/20 03:46:22;;;;;;;10.80;1.90;;;10.90;59.30;;;;;;20750314;28;20424;-85
2022/01/20 03:56:23;;;;;;;6.63;1.65;;;10.90;59.40;;;;;;20727405;28;20073;-84
2022/01/20 04:06:33;;;;;;;10.55;1.35;;;10.90;59.50;;;;;;20713934;28;20038;-84
2022/01/20 04:26:53;;;;;;;6.05;1.40;;;10.90;59.60;;;;;;20726866;28;20343;-84
2022/01/20 04:36:55;;;;;;;2.95;1.50;;;10.80;59.50;;;;;;20708631;28;20080;-84
2022/01/20 04:47:11;;;;;;;5.93;1.30;;;10.80;59.40;;;;;;20755362;28;20123;-85
2022/01/20 04:57:17;;;;;;;10.87;1.50;;;10.80;59.40;;;;;;20741853;28;20105;-85
2022/01/20 05:07:24;;;;;;;3.38;1.55;;;10.80;59.40;;;;;;20706812;28;20033;-85
2022/01/20 05:17:25;;;;;;;3.85;0.90;;;11.00;59.00;;;;;;20653313;28;20081;-75
2022/01/20 05:27:29;;;;;;;8.38;1.13;;;12.00;56.80;;;;;;20636507;28;20069;-81
2022/01/20 05:37:30;;;;;;;4.80;0.93;;;13.00;54.20;;;;;;20650084;28;20034;-75
2022/01/20 05:47:32;;;;;;;3.80;1.00;;;14.00;51.40;;;;;;20635187;28;20098;-80
2022/01/20 05:57:53;;;;;;;4.18;0.80;;;14.90;49.20;;;;;;20655373;28;20052;-77
2022/01/20 06:07:54;;;;;;;3.13;0.87;;;15.20;48.00;;;;;;20618523;28;20057;-83
2022/01/20 06:17:55;;;;;;;3.72;1.13;;;15.30;47.20;;;;;;20635299;28;20289;-82
2022/01/20 06:27:56;;;;;;;2.92;0.80;;;15.20;46.90;;;;;;20584440;28;20065;-81
2022/01/20 06:37:57;;;;;;;3.55;0.70;;;14.90;46.90;;;;;;20616471;28;20600;-77
2022/01/20 06:48:03;;;;;;;3.53;1.02;;;14.20;48.10;;;;;;20632669;28;20070;-78
2022/01/20 06:58:06;;;;;;;4.53;1.25;;;13.30;49.30;;;;;;20647205;28;20129;-78
2022/01/20 07:08:07;;;;;;;3.30;0.90;;;12.70;50.70;;;;;;20630414;28;20056;-78
2022/01/20 07:18:08;;;;;;;4.10;1.10;;;12.10;51.60;;;;;;20626610;28;20572;-78
2022/01/20 07:28:09;;;;;;;4.03;1.10;;;11.80;52.50;;;;;;20741289;28;20093;-77
2022/01/20 07:38:11;;;;;;;6.40;1.48;;;11.50;53.10;;;;;;20693193;28;20046;-78
2022/01/20 07:48:14;;;;;;;4.40;1.20;;;11.40;53.60;;;;;;20674351;28;20493;-78
2022/01/20 07:58:15;;;;;;;6.18;1.27;;;11.30;53.90;;;;;;20691026;28;20374;-78
2022/01/20 08:08:18;;;;;;;5.40;2.28;;;11.30;54.10;;;;;;20577487;28;20534;-76
2022/01/20 08:18:28;;;;;;;3.13;1.27;;;11.30;54.20;;;;;;20602105;28;20081;-78
2022/01/20 08:28:33;;;;;;;3.30;1.10;;;11.30;54.20;;;;;;20624319;28;20117;-78
2022/01/20 08:38:34;;;;;;;3.33;0.88;;;11.20;54.20;;;;;;20679268;28;20048;-78
2022/01/20 08:48:35;;;;;;;5.07;1.30;;;11.20;54.30;;;;;;20683899;28;20445;-78
2022/01/20 08:58:48;;;;;;;7.10;1.50;;;11.20;54.30;;;;;;20661173;28;20038;-77
2022/01/20 09:08:49;;;;;;;7.15;1.42;;;11.20;54.40;;;;;;20643153;28;20114;-77
2022/01/20 09:18:50;;;;;;;3.63;1.05;;;11.10;54.50;;;;;;20652437;28;20038;-76
2022/01/20 09:28:52;;;;;;;11.23;1.67;;;11.10;54.50;;;;;;20700508;28;20404;-79
2022/01/20 09:38:56;;;;;;;4.65;1.20;;;11.10;54.70;;;;;;20700562;28;20041;-77
2022/01/20 09:49:13;;;;;;;5.37;1.43;;;11.10;54.50;;;;;;20648019;28;20065;-77
2022/01/20 09:59:16;;;;;;;6.38;1.15;;;11.10;54.50;;;;;;20615807;28;20690;-77
2022/01/20 10:09:54;;;;;;;3.75;1.30;;;11.10;54.50;;;;;;20631315;28;20038;-75
2022/01/20 10:20:14;;;;;;;8.35;1.00;;;11.10;54.50;;;;;;20658203;28;20050;-78
2022/01/20 10:30:29;;;;;;;6.90;1.50;;;11.10;54.50;;;;;;20616961;28;20152;-77
2022/01/20 10:40:31;;;;;;;8.80;1.25;;;11.10;54.40;;;;;;20647715;28;20389;-77
2022/01/20 10:50:36;;;;;;;5.50;1.65;;;11.00;54.40;;;;;;20626687;28;20050;-78
2022/01/20 11:00:46;;;;;;;3.72;1.25;;;11.00;54.30;;;;;;20663803;28;20045;-77
2022/01/20 11:10:49;;;;;;;7.93;1.27;;;11.00;54.30;;;;;;20647599;28;20046;-77
2022/01/20 11:21:06;;;;;;;2.72;0.93;;;11.50;53.50;;;;;;20666566;28;20072;-76
2022/01/20 11:31:08;;;;;;;7.43;1.00;;;12.60;51.20;;;;;;20645614;28;20054;-84
2022/01/20 11:51:59;;;;;;;5.40;0.83;;;14.20;47.60;;;;;;20628134;23;20046;-82
2022/01/20 12:02:00;;;;;;;4.55;1.10;;;13.60;47.90;;;;;;20641498;28;20092;-78
2022/01/20 12:12:01;;;;;;;4.05;1.00;;;13.30;48.20;;;;;;20642886;28;20357;-78
2022/01/20 12:22:02;;;;;;;3.05;1.00;;;13.60;48.00;;;;;;20606451;28;20042;-78
2022/01/20 12:32:13;;;;;;;6.38;1.30;;;14.00;46.90;;;;;;20560939;28;20059;-79
2022/01/20 12:42:14;;;;;;;2.78;1.30;;;14.40;45.80;;;;;;20560796;28;20039;-77
2022/01/20 12:52:14;;;;;;;3.15;0.70;;;14.70;45.20;;;;;;20559718;28;20045;-79
2022/01/20 13:02:27;;;;;;;4.93;0.95;;;15.00;44.50;;;;;;20573622;28;20038;-78
2022/01/20 13:12:40;;;;;;;3.40;1.90;;;14.60;44.80;;;;;;20557065;28;20481;-76
2022/01/20 13:22:57;;;;;;;8.07;0.95;;;13.90;46.10;;;;;;20615889;28;20054;-77
2022/01/20 13:32:57;;;;;;;4.18;1.10;;;13.10;47.30;;;;;;20654494;28;20069;-76
2022/01/20 13:53:26;;;;;;;3.00;0.80;;;12.20;49.70;;;;;;20574318;28;20041;-75
2022/01/20 14:03:27;;;;;;;2.58;0.63;;;11.90;50.40;;;;;;20545048;28;20034;-77
2022/01/20 14:13:28;;;;;;;2.15;0.70;;;11.70;50.90;;;;;;20647265;28;20130;-78
2022/01/20 14:23:28;;;;;;;3.15;1.02;;;11.70;50.90;;;;;;20612287;28;20049;-77
2022/01/20 14:33:29;;;;;;;2.50;0.82;;;11.90;50.60;;;;;;20629363;28;20472;-76
2022/01/20 14:43:29;;;;;;;2.70;0.70;;;11.90;50.40;;;;;;20573262;28;20108;-76
2022/01/20 14:53:31;;;;;;;3.03;1.00;;;11.90;50.20;;;;;;20644854;28;20492;-75
2022/01/20 15:03:33;;;;;;;0.68;0.65;;;11.90;50.20;;;;;;20644752;28;20293;-79
2022/01/20 15:13:33;;;;;;;1.55;0.45;;;11.80;50.20;;;;;;20603082;28;20400;-78
2022/01/20 15:23:34;;;;;;;2.47;0.90;;;11.80;50.30;;;;;;20583498;28;20038;-77
2022/01/20 15:33:35;;;;;;;2.08;0.80;;;11.80;50.40;;;;;;20632647;28;20077;-77
2022/01/20 15:43:35;;;;;;;2.50;1.00;;;11.80;50.40;;;;;;20590823;28;20047;-78
2022/01/20 15:53:36;;;;;;;3.53;0.80;;;12.50;49.20;;;;;;20593719;28;20783;-82
2022/01/20 16:03:36;;;;;;;3.28;0.80;;;13.50;47.30;;;;;;20562299;28;20041;-75
2022/01/20 16:13:37;;;;;;;1.58;0.90;;;14.40;45.50;;;;;;20578427;28;20489;-80
2022/01/20 16:23:40;;;;;;;6.53;1.25;;;14.80;44.60;;;;;;20639662;28;20660;-78
2022/01/20 16:33:41;;;;;;;2.60;1.30;;;14.50;44.90;;;;;;20645620;28;20034;-80
2022/01/20 16:43:42;;;;;;;6.53;1.33;;;14.00;45.40;;;;;;20620465;28;20381;-80
2022/01/20 16:53:43;;;;;;;6.03;1.10;;;14.00;45.30;;;;;;20623871;28;20040;-78
2022/01/20 17:03:43;;;;;;;3.35;1.35;;;14.10;44.80;;;;;;20638702;28;20038;-79
2022/01/20 17:13:44;;;;;;;4.47;1.00;;;14.30;45.50;;;;;;20642359;28;20035;-78
2022/01/20 17:23:45;;;;;;;2.90;1.02;;;14.00;46.40;;;;;;20616307;28;20546;-74
2022/01/20 17:33:45;;;;;;;5.20;1.10;;;13.40;46.40;;;;;;20584011;28;20122;-81
2022/01/20 17:43:48;;;;;;;3.83;1.15;;;12.80;47.40;;;;;;20617510;28;20142;-77
2022/01/20 17:53:49;;;;;;;4.10;0.82;;;12.20;48.20;;;;;;20593936;28;20370;-80
2022/01/20 18:03:50;;;;;;;7.80;1.70;;;11.90;49.00;;;;;;20542510;28;20421;-79
2022/01/20 18:13:52;;;;;;;7.30;2.07;;;11.60;49.60;;;;;;20627239;28;20044;-80
2022/01/20 18:23:52;;;;;;;3.17;1.80;;;11.40;50.00;;;;;;20649292;28;20301;-73
2022/01/20 18:33:54;;;;;;;3.22;1.30;;;11.40;50.80;;;;;;20663720;28;20493;-79
2022/01/20 18:43:55;;;;;;;3.15;1.60;;;11.50;50.30;;;;;;20642063;28;20050;-80
2022/01/20 18:53:55;;;;;;;4.55;0.90;;;11.50;50.10;;;;;;20489560;29;20086;-76
2022/01/20 19:03:56;;;;;;;6.28;1.15;;;11.60;49.90;;;;;;20488096;29;20040;-76
2022/01/20 19:13:57;;;;;;;2.53;1.10;;;11.60;49.60;;;;;;20569446;28;20381;-76
2022/01/20 19:23:59;;;;;;;3.25;0.82;;;11.70;49.50;;;;;;20563819;28;20060;-76
2022/01/20 19:34:00;;;;;;;2.47;1.00;;;11.70;50.00;;;;;;20579588;28;20147;-77
2022/01/20 19:44:00;;;;;;;6.65;2.30;;;11.70;49.20;;;;;;20594485;28;20380;-77
2022/01/20 19:54:01;;;;;;;3.65;1.30;;;11.70;49.00;;;;;;20576893;28;20039;-75
2022/01/20 20:04:02;;;;;;;2.45;0.80;;;11.70;49.00;;;;;;20591621;28;20035;-78
2022/01/20 20:14:03;;;;;;;2.47;1.10;;;11.70;49.00;;;;;;20558416;28;20033;-79
2022/01/20 20:24:04;;;;;;;3.65;1.00;;;11.70;49.00;;;;;;20555239;28;20097;-79
2022/01/20 20:34:06;;;;;;;2.95;0.90;;;11.80;49.10;;;;;;20588685;28;20027;-78
2022/01/20 20:44:07;;;;;;;3.63;1.35;;;11.70;49.00;;;;;;20555545;28;20062;-79
2022/01/20 20:54:08;;;;;;;2.30;0.82;;;11.70;48.90;;;;;;20570729;28;20035;-79
2022/01/20 21:04:08;;;;;;;3.58;0.90;;;11.70;49.00;;;;;;20586621;28;20105;-79
2022/01/20 21:14:09;;;;;;;3.30;1.20;;;11.60;48.90;;;;;;20585670;28;20026;-79
2022/01/20 21:24:11;;;;;;;1.67;0.77;;;11.60;48.90;;;;;;20568077;28;20137;-78
2022/01/20 21:34:11;;;;;;;6.80;1.10;;;11.60;48.80;;;;;;20550365;28;20731;-79
2022/01/20 21:44:12;;;;;;;1.65;1.00;;;11.60;48.80;;;;;;20583558;28;20057;-79
2022/01/20 21:54:12;;;;;;;3.13;1.10;;;11.60;48.70;;;;;;20582007;28;20040;-78
2022/01/20 22:04:13;;;;;;;2.80;1.27;;;11.60;48.70;;;;;;20565366;28;20302;-78
2022/01/20 22:14:15;;;;;;;4.50;1.00;;;11.60;48.70;;;;;;20501237;29;20541;-79
2022/01/20 22:24:15;;;;;;;3.92;0.93;;;11.60;48.70;;;;;;20503025;28;20043;-79
2022/01/20 22:34:16;;;;;;;3.80;1.65;;;11.60;48.70;;;;;;20564363;28;20034;-79
2022/01/20 22:44:17;;;;;;;4.55;1.08;;;11.50;48.70;;;;;;20554415;28;20198;-79
2022/01/20 22:54:17;;;;;;;4.32;0.85;;;11.50;48.60;;;;;;20564056;28;20489;-79
2022/01/20 23:04:18;;;;;;;3.67;1.00;;;11.50;48.60;;;;;;20562798;28;20134;-78
2022/01/20 23:14:20;;;;;;;2.70;1.07;;;11.50;48.60;;;;;;20577943;28;20062;-79
2022/01/20 23:24:22;;;;;;;4.32;0.90;;;11.50;48.60;;;;;;20563108;28;20296;-79
2022/01/20 23:34:22;;;;;;;3.15;0.93;;;11.50;48.60;;;;;;20579408;28;20070;-79
2022/01/20 23:44:36;;;;;;;1.58;0.63;;;11.50;48.50;;;;;;20576856;28;20043;-79
2022/01/20 23:54:37;;;;;;;3.38;0.70;;;11.50;48.50;;;;;;20593046;28;20049;-78
